sensor_id;sensor_type;location;lat;lon;timestamp;P1;durP1;ratioP1;P2;durP2;ratioP2
77105;SDS011;66057;54.718;18.426;2024-02-21T00:00:21;16.05;;;2.08;;
77105;SDS011;66057;54.718;18.426;2024-02-21T00:03:07;6.20;;;2.35;;
77105;SDS011;66057;54.718;18.426;2024-02-21T00:05:32;12.60;;;2.33;;
77105;SDS011;66057;54.718;18.426;2024-02-21T00:07:59;10.38;;;3.60;;
77105;SDS011;66057;54.718;18.426;2024-02-21T00:10:24;4.85;;;2.30;;
77105;SDS011;66057;54.718;18.426;2024-02-21T00:12:51;8.80;;;2.60;;
77105;SDS011;66057;54.718;18.426;2024-02-21T00:15:16;8.77;;;2.00;;
77105;SDS011;66057;54.718;18.426;2024-02-21T00:17:43;6.43;;;1.60;;
77105;SDS011;66057;54.718;18.426;2024-02-21T00:20:08;10.20;;;3.65;;
77105;SDS011;66057;54.718;18.426;2024-02-21T00:22:34;12.50;;;3.35;;
77105;SDS011;66057;54.718;18.426;2024-02-21T00:25:00;8.73;;;2.17;;
77105;SDS011;66057;54.718;18.426;2024-02-21T00:27:25;11.60;;;2.88;;
77105;SDS011;66057;54.718;18.426;2024-02-21T00:29:51;2.63;;;1.20;;
77105;SDS011;66057;54.718;18.426;2024-02-21T00:32:16;2.13;;;1.35;;
77105;SDS011;66057;54.718;18.426;2024-02-21T00:34:42;11.32;;;1.85;;
77105;SDS011;66057;54.718;18.426;2024-02-21T00:37:07;13.55;;;2.95;;
77105;SDS011;66057;54.718;18.426;2024-02-21T00:39:33;4.78;;;2.35;;
77105;SDS011;66057;54.718;18.426;2024-02-21T00:41:59;9.73;;;1.85;;
77105;SDS011;66057;54.718;18.426;2024-02-21T00:44:24;11.85;;;3.33;;
77105;SDS011;66057;54.718;18.426;2024-02-21T00:46:50;4.00;;;2.35;;
77105;SDS011;66057;54.718;18.426;2024-02-21T00:49:16;18.55;;;3.30;;
77105;SDS011;66057;54.718;18.426;2024-02-21T00:51:41;14.30;;;3.22;;
77105;SDS011;66057;54.718;18.426;2024-02-21T00:54:07;5.90;;;1.63;;
77105;SDS011;66057;54.718;18.426;2024-02-21T00:56:32;5.88;;;2.60;;
77105;SDS011;66057;54.718;18.426;2024-02-21T00:58:58;20.20;;;3.35;;
77105;SDS011;66057;54.718;18.426;2024-02-21T01:01:24;4.40;;;1.73;;
77105;SDS011;66057;54.718;18.426;2024-02-21T01:03:50;22.70;;;3.80;;
77105;SDS011;66057;54.718;18.426;2024-02-21T01:06:16;12.20;;;3.72;;
77105;SDS011;66057;54.718;18.426;2024-02-21T01:08:42;7.63;;;3.75;;
77105;SDS011;66057;54.718;18.426;2024-02-21T01:11:08;13.52;;;3.70;;
77105;SDS011;66057;54.718;18.426;2024-02-21T01:13:33;26.45;;;4.35;;
77105;SDS011;66057;54.718;18.426;2024-02-21T01:15:59;20.17;;;3.45;;
77105;SDS011;66057;54.718;18.426;2024-02-21T01:18:24;7.53;;;2.78;;
77105;SDS011;66057;54.718;18.426;2024-02-21T01:20:50;13.65;;;3.65;;
77105;SDS011;66057;54.718;18.426;2024-02-21T01:23:15;21.98;;;3.38;;
77105;SDS011;66057;54.718;18.426;2024-02-21T01:25:41;21.20;;;4.90;;
77105;SDS011;66057;54.718;18.426;2024-02-21T01:28:06;16.63;;;4.82;;
77105;SDS011;66057;54.718;18.426;2024-02-21T01:30:32;17.92;;;4.88;;
77105;SDS011;66057;54.718;18.426;2024-02-21T01:32:58;17.13;;;4.70;;
77105;SDS011;66057;54.718;18.426;2024-02-21T01:35:23;12.32;;;3.95;;
77105;SDS011;66057;54.718;18.426;2024-02-21T01:37:49;21.02;;;6.90;;
77105;SDS011;66057;54.718;18.426;2024-02-21T01:40:14;23.80;;;5.85;;
77105;SDS011;66057;54.718;18.426;2024-02-21T01:42:40;30.40;;;4.53;;
77105;SDS011;66057;54.718;18.426;2024-02-21T01:45:06;9.38;;;2.85;;
77105;SDS011;66057;54.718;18.426;2024-02-21T01:47:31;19.02;;;5.10;;
77105;SDS011;66057;54.718;18.426;2024-02-21T01:49:57;22.85;;;6.88;;
77105;SDS011;66057;54.718;18.426;2024-02-21T01:52:23;19.73;;;4.82;;
77105;SDS011;66057;54.718;18.426;2024-02-21T01:54:48;26.20;;;5.03;;
77105;SDS011;66057;54.718;18.426;2024-02-21T01:57:14;32.70;;;5.95;;
77105;SDS011;66057;54.718;18.426;2024-02-21T01:59:40;21.70;;;7.03;;
77105;SDS011;66057;54.718;18.426;2024-02-21T02:02:06;19.80;;;4.68;;
77105;SDS011;66057;54.718;18.426;2024-02-21T02:04:31;22.40;;;4.47;;
77105;SDS011;66057;54.718;18.426;2024-02-21T02:06:57;14.13;;;4.28;;
77105;SDS011;66057;54.718;18.426;2024-02-21T02:09:24;16.15;;;4.00;;
77105;SDS011;66057;54.718;18.426;2024-02-21T02:11:50;27.38;;;5.60;;
77105;SDS011;66057;54.718;18.426;2024-02-21T02:14:16;14.13;;;3.90;;
77105;SDS011;66057;54.718;18.426;2024-02-21T02:16:41;26.77;;;5.60;;
77105;SDS011;66057;54.718;18.426;2024-02-21T02:19:07;12.05;;;3.80;;
77105;SDS011;66057;54.718;18.426;2024-02-21T02:21:39;19.95;;;5.50;;
77105;SDS011;66057;54.718;18.426;2024-02-21T02:24:05;17.67;;;5.70;;
77105;SDS011;66057;54.718;18.426;2024-02-21T02:26:30;7.65;;;2.90;;
77105;SDS011;66057;54.718;18.426;2024-02-21T02:28:57;17.10;;;5.32;;
77105;SDS011;66057;54.718;18.426;2024-02-21T02:31:22;18.70;;;4.22;;
77105;SDS011;66057;54.718;18.426;2024-02-21T02:33:48;18.30;;;4.28;;
77105;SDS011;66057;54.718;18.426;2024-02-21T02:36:13;15.02;;;5.35;;
77105;SDS011;66057;54.718;18.426;2024-02-21T02:38:39;8.40;;;4.03;;
77105;SDS011;66057;54.718;18.426;2024-02-21T02:41:05;10.00;;;3.13;;
77105;SDS011;66057;54.718;18.426;2024-02-21T02:43:31;19.05;;;4.72;;
77105;SDS011;66057;54.718;18.426;2024-02-21T02:45:56;18.67;;;5.63;;
77105;SDS011;66057;54.718;18.426;2024-02-21T02:48:22;9.07;;;3.60;;
77105;SDS011;66057;54.718;18.426;2024-02-21T02:50:47;21.25;;;6.10;;
77105;SDS011;66057;54.718;18.426;2024-02-21T02:53:15;11.45;;;3.05;;
77105;SDS011;66057;54.718;18.426;2024-02-21T02:55:40;13.77;;;3.38;;
77105;SDS011;66057;54.718;18.426;2024-02-21T02:58:06;12.73;;;3.40;;
77105;SDS011;66057;54.718;18.426;2024-02-21T03:00:31;15.50;;;4.10;;
77105;SDS011;66057;54.718;18.426;2024-02-21T03:03:01;5.72;;;3.03;;
77105;SDS011;66057;54.718;18.426;2024-02-21T03:05:29;19.65;;;4.30;;
77105;SDS011;66057;54.718;18.426;2024-02-21T03:07:54;10.88;;;4.05;;
77105;SDS011;66057;54.718;18.426;2024-02-21T03:10:20;8.45;;;3.35;;
77105;SDS011;66057;54.718;18.426;2024-02-21T03:12:46;13.60;;;3.17;;
77105;SDS011;66057;54.718;18.426;2024-02-21T03:15:12;14.30;;;4.22;;
77105;SDS011;66057;54.718;18.426;2024-02-21T03:17:38;16.92;;;4.03;;
77105;SDS011;66057;54.718;18.426;2024-02-21T03:20:04;18.55;;;4.13;;
77105;SDS011;66057;54.718;18.426;2024-02-21T03:22:33;16.25;;;4.95;;
77105;SDS011;66057;54.718;18.426;2024-02-21T03:24:58;10.52;;;2.88;;
77105;SDS011;66057;54.718;18.426;2024-02-21T03:27:24;10.48;;;2.83;;
77105;SDS011;66057;54.718;18.426;2024-02-21T03:29:50;18.27;;;4.50;;
77105;SDS011;66057;54.718;18.426;2024-02-21T03:32:15;7.93;;;3.17;;
77105;SDS011;66057;54.718;18.426;2024-02-21T03:34:41;13.40;;;4.70;;
77105;SDS011;66057;54.718;18.426;2024-02-21T03:37:06;15.75;;;3.72;;
77105;SDS011;66057;54.718;18.426;2024-02-21T03:39:32;5.15;;;2.17;;
77105;SDS011;66057;54.718;18.426;2024-02-21T03:41:58;11.85;;;2.28;;
77105;SDS011;66057;54.718;18.426;2024-02-21T03:44:26;10.90;;;2.55;;
77105;SDS011;66057;54.718;18.426;2024-02-21T03:46:52;10.52;;;3.95;;
77105;SDS011;66057;54.718;18.426;2024-02-21T03:49:18;20.23;;;4.15;;
77105;SDS011;66057;54.718;18.426;2024-02-21T03:51:43;10.27;;;3.10;;
77105;SDS011;66057;54.718;18.426;2024-02-21T03:54:09;12.93;;;3.70;;
77105;SDS011;66057;54.718;18.426;2024-02-21T03:56:37;14.63;;;4.07;;
77105;SDS011;66057;54.718;18.426;2024-02-21T03:59:06;7.78;;;3.85;;
77105;SDS011;66057;54.718;18.426;2024-02-21T04:01:32;7.50;;;3.05;;
77105;SDS011;66057;54.718;18.426;2024-02-21T04:03:57;7.63;;;3.53;;
77105;SDS011;66057;54.718;18.426;2024-02-21T04:06:23;18.33;;;3.60;;
77105;SDS011;66057;54.718;18.426;2024-02-21T04:08:48;11.15;;;2.20;;
77105;SDS011;66057;54.718;18.426;2024-02-21T04:11:14;10.15;;;2.80;;
77105;SDS011;66057;54.718;18.426;2024-02-21T04:13:39;5.10;;;1.75;;
77105;SDS011;66057;54.718;18.426;2024-02-21T04:16:05;11.00;;;3.28;;
77105;SDS011;66057;54.718;18.426;2024-02-21T04:18:31;15.55;;;4.43;;
77105;SDS011;66057;54.718;18.426;2024-02-21T04:20:57;13.35;;;3.67;;
77105;SDS011;66057;54.718;18.426;2024-02-21T04:23:22;4.68;;;1.88;;
77105;SDS011;66057;54.718;18.426;2024-02-21T04:25:48;13.10;;;3.45;;
77105;SDS011;66057;54.718;18.426;2024-02-21T04:28:13;11.98;;;3.78;;
77105;SDS011;66057;54.718;18.426;2024-02-21T04:30:39;5.72;;;2.92;;
77105;SDS011;66057;54.718;18.426;2024-02-21T04:33:04;5.43;;;2.63;;
77105;SDS011;66057;54.718;18.426;2024-02-21T04:35:30;10.85;;;1.88;;
77105;SDS011;66057;54.718;18.426;2024-02-21T04:37:55;10.32;;;2.00;;
77105;SDS011;66057;54.718;18.426;2024-02-21T04:40:21;10.25;;;3.50;;
77105;SDS011;66057;54.718;18.426;2024-02-21T04:42:46;5.50;;;1.63;;
77105;SDS011;66057;54.718;18.426;2024-02-21T04:45:12;17.65;;;2.70;;
77105;SDS011;66057;54.718;18.426;2024-02-21T04:47:37;11.25;;;3.25;;
77105;SDS011;66057;54.718;18.426;2024-02-21T04:50:03;8.40;;;2.80;;
77105;SDS011;66057;54.718;18.426;2024-02-21T04:52:28;10.70;;;2.40;;
77105;SDS011;66057;54.718;18.426;2024-02-21T04:54:55;12.30;;;2.95;;
77105;SDS011;66057;54.718;18.426;2024-02-21T04:57:21;11.95;;;3.88;;
77105;SDS011;66057;54.718;18.426;2024-02-21T04:59:47;6.82;;;3.35;;
77105;SDS011;66057;54.718;18.426;2024-02-21T05:02:15;11.13;;;2.60;;
77105;SDS011;66057;54.718;18.426;2024-02-21T05:04:42;14.15;;;4.38;;
77105;SDS011;66057;54.718;18.426;2024-02-21T05:07:07;10.32;;;3.10;;
77105;SDS011;66057;54.718;18.426;2024-02-21T05:09:33;14.32;;;3.65;;
77105;SDS011;66057;54.718;18.426;2024-02-21T05:11:59;9.05;;;3.03;;
77105;SDS011;66057;54.718;18.426;2024-02-21T05:14:25;10.65;;;2.45;;
77105;SDS011;66057;54.718;18.426;2024-02-21T05:16:50;7.75;;;2.97;;
77105;SDS011;66057;54.718;18.426;2024-02-21T05:19:16;10.05;;;2.47;;
77105;SDS011;66057;54.718;18.426;2024-02-21T05:21:41;12.70;;;4.00;;
77105;SDS011;66057;54.718;18.426;2024-02-21T05:24:07;8.18;;;3.00;;
77105;SDS011;66057;54.718;18.426;2024-02-21T05:26:32;7.90;;;3.17;;
77105;SDS011;66057;54.718;18.426;2024-02-21T05:28:58;7.90;;;3.47;;
77105;SDS011;66057;54.718;18.426;2024-02-21T05:31:24;10.30;;;3.80;;
77105;SDS011;66057;54.718;18.426;2024-02-21T05:33:50;15.10;;;4.68;;
77105;SDS011;66057;54.718;18.426;2024-02-21T05:36:16;11.57;;;3.50;;
77105;SDS011;66057;54.718;18.426;2024-02-21T05:38:41;11.23;;;3.15;;
77105;SDS011;66057;54.718;18.426;2024-02-21T05:41:07;9.88;;;3.08;;
77105;SDS011;66057;54.718;18.426;2024-02-21T05:43:33;11.35;;;3.30;;
77105;SDS011;66057;54.718;18.426;2024-02-21T05:45:58;15.10;;;4.00;;
77105;SDS011;66057;54.718;18.426;2024-02-21T05:48:24;14.77;;;3.33;;
77105;SDS011;66057;54.718;18.426;2024-02-21T05:50:50;10.57;;;3.65;;
77105;SDS011;66057;54.718;18.426;2024-02-21T05:53:15;16.33;;;3.00;;
77105;SDS011;66057;54.718;18.426;2024-02-21T05:55:41;13.68;;;4.43;;
77105;SDS011;66057;54.718;18.426;2024-02-21T05:58:07;11.43;;;3.58;;
77105;SDS011;66057;54.718;18.426;2024-02-21T06:00:32;10.00;;;2.78;;
77105;SDS011;66057;54.718;18.426;2024-02-21T06:02:58;5.00;;;2.15;;
77105;SDS011;66057;54.718;18.426;2024-02-21T06:05:24;14.38;;;3.28;;
77105;SDS011;66057;54.718;18.426;2024-02-21T06:07:50;11.32;;;1.65;;
77105;SDS011;66057;54.718;18.426;2024-02-21T06:10:15;5.68;;;1.83;;
77105;SDS011;66057;54.718;18.426;2024-02-21T06:12:41;10.75;;;2.47;;
77105;SDS011;66057;54.718;18.426;2024-02-21T06:15:06;7.88;;;2.53;;
77105;SDS011;66057;54.718;18.426;2024-02-21T06:17:32;12.80;;;3.92;;
77105;SDS011;66057;54.718;18.426;2024-02-21T06:19:58;23.58;;;5.20;;
77105;SDS011;66057;54.718;18.426;2024-02-21T06:22:23;12.90;;;4.43;;
77105;SDS011;66057;54.718;18.426;2024-02-21T06:24:49;13.18;;;4.53;;
77105;SDS011;66057;54.718;18.426;2024-02-21T06:27:15;13.65;;;4.93;;
77105;SDS011;66057;54.718;18.426;2024-02-21T06:29:41;16.88;;;6.15;;
77105;SDS011;66057;54.718;18.426;2024-02-21T06:32:07;8.68;;;3.38;;
77105;SDS011;66057;54.718;18.426;2024-02-21T06:34:33;16.48;;;4.35;;
77105;SDS011;66057;54.718;18.426;2024-02-21T06:36:58;10.70;;;3.90;;
77105;SDS011;66057;54.718;18.426;2024-02-21T06:39:24;8.82;;;3.90;;
77105;SDS011;66057;54.718;18.426;2024-02-21T06:41:50;7.13;;;3.13;;
77105;SDS011;66057;54.718;18.426;2024-02-21T06:44:16;7.32;;;2.28;;
77105;SDS011;66057;54.718;18.426;2024-02-21T06:46:42;6.63;;;3.38;;
77105;SDS011;66057;54.718;18.426;2024-02-21T06:49:07;10.60;;;4.05;;
77105;SDS011;66057;54.718;18.426;2024-02-21T06:51:33;10.98;;;4.60;;
77105;SDS011;66057;54.718;18.426;2024-02-21T06:53:59;8.02;;;3.17;;
77105;SDS011;66057;54.718;18.426;2024-02-21T06:56:25;22.38;;;5.00;;
77105;SDS011;66057;54.718;18.426;2024-02-21T06:58:57;8.80;;;4.72;;
77105;SDS011;66057;54.718;18.426;2024-02-21T07:01:23;7.35;;;3.75;;
77105;SDS011;66057;54.718;18.426;2024-02-21T07:03:49;11.15;;;3.67;;
77105;SDS011;66057;54.718;18.426;2024-02-21T07:06:14;5.78;;;2.47;;
77105;SDS011;66057;54.718;18.426;2024-02-21T07:08:40;14.02;;;4.13;;
77105;SDS011;66057;54.718;18.426;2024-02-21T07:11:06;12.05;;;3.90;;
77105;SDS011;66057;54.718;18.426;2024-02-21T07:13:32;14.77;;;5.78;;
77105;SDS011;66057;54.718;18.426;2024-02-21T07:15:58;11.57;;;4.68;;
77105;SDS011;66057;54.718;18.426;2024-02-21T07:18:23;18.00;;;4.85;;
77105;SDS011;66057;54.718;18.426;2024-02-21T07:20:51;10.20;;;2.75;;
77105;SDS011;66057;54.718;18.426;2024-02-21T07:23:16;11.05;;;4.72;;
77105;SDS011;66057;54.718;18.426;2024-02-21T07:25:42;21.80;;;5.80;;
77105;SDS011;66057;54.718;18.426;2024-02-21T07:28:07;18.63;;;6.00;;
77105;SDS011;66057;54.718;18.426;2024-02-21T07:30:33;11.63;;;5.25;;
77105;SDS011;66057;54.718;18.426;2024-02-21T07:32:59;18.73;;;7.80;;
77105;SDS011;66057;54.718;18.426;2024-02-21T07:35:24;16.25;;;4.30;;
77105;SDS011;66057;54.718;18.426;2024-02-21T07:37:50;16.95;;;5.53;;
77105;SDS011;66057;54.718;18.426;2024-02-21T07:40:16;9.27;;;4.18;;
77105;SDS011;66057;54.718;18.426;2024-02-21T07:42:42;21.67;;;6.15;;
77105;SDS011;66057;54.718;18.426;2024-02-21T07:45:08;11.90;;;4.75;;
77105;SDS011;66057;54.718;18.426;2024-02-21T07:47:34;15.25;;;5.25;;
77105;SDS011;66057;54.718;18.426;2024-02-21T07:49:59;12.75;;;4.57;;
77105;SDS011;66057;54.718;18.426;2024-02-21T07:52:25;13.40;;;4.00;;
77105;SDS011;66057;54.718;18.426;2024-02-21T07:54:51;13.02;;;6.03;;
77105;SDS011;66057;54.718;18.426;2024-02-21T07:57:16;19.00;;;6.00;;
77105;SDS011;66057;54.718;18.426;2024-02-21T07:59:42;18.45;;;5.88;;
77105;SDS011;66057;54.718;18.426;2024-02-21T08:02:07;23.35;;;6.93;;
77105;SDS011;66057;54.718;18.426;2024-02-21T08:04:33;21.65;;;6.00;;
77105;SDS011;66057;54.718;18.426;2024-02-21T08:06:59;14.18;;;6.15;;
77105;SDS011;66057;54.718;18.426;2024-02-21T08:09:28;16.95;;;8.40;;
77105;SDS011;66057;54.718;18.426;2024-02-21T08:11:54;16.08;;;6.00;;
77105;SDS011;66057;54.718;18.426;2024-02-21T08:14:19;15.65;;;5.60;;
77105;SDS011;66057;54.718;18.426;2024-02-21T08:16:45;15.60;;;5.28;;
77105;SDS011;66057;54.718;18.426;2024-02-21T08:19:10;11.20;;;4.70;;
77105;SDS011;66057;54.718;18.426;2024-02-21T08:21:36;15.73;;;5.13;;
77105;SDS011;66057;54.718;18.426;2024-02-21T08:24:02;23.83;;;5.47;;
77105;SDS011;66057;54.718;18.426;2024-02-21T08:26:27;14.73;;;6.15;;
77105;SDS011;66057;54.718;18.426;2024-02-21T08:28:55;13.52;;;5.65;;
77105;SDS011;66057;54.718;18.426;2024-02-21T08:31:24;15.98;;;4.13;;
77105;SDS011;66057;54.718;18.426;2024-02-21T08:33:54;8.55;;;5.00;;
77105;SDS011;66057;54.718;18.426;2024-02-21T08:36:19;19.10;;;4.15;;
77105;SDS011;66057;54.718;18.426;2024-02-21T08:38:45;29.33;;;3.58;;
77105;SDS011;66057;54.718;18.426;2024-02-21T08:41:11;14.07;;;5.28;;
77105;SDS011;66057;54.718;18.426;2024-02-21T08:43:37;9.77;;;4.45;;
77105;SDS011;66057;54.718;18.426;2024-02-21T08:46:04;10.60;;;5.18;;
77105;SDS011;66057;54.718;18.426;2024-02-21T08:48:29;8.98;;;4.03;;
77105;SDS011;66057;54.718;18.426;2024-02-21T08:50:55;6.90;;;3.03;;
77105;SDS011;66057;54.718;18.426;2024-02-21T08:53:21;4.82;;;2.67;;
77105;SDS011;66057;54.718;18.426;2024-02-21T08:55:46;7.38;;;3.28;;
77105;SDS011;66057;54.718;18.426;2024-02-21T08:58:12;13.57;;;5.03;;
77105;SDS011;66057;54.718;18.426;2024-02-21T09:00:37;10.93;;;4.07;;
77105;SDS011;66057;54.718;18.426;2024-02-21T09:03:03;9.18;;;3.72;;
77105;SDS011;66057;54.718;18.426;2024-02-21T09:05:28;7.07;;;3.72;;
77105;SDS011;66057;54.718;18.426;2024-02-21T09:07:54;6.65;;;3.58;;
77105;SDS011;66057;54.718;18.426;2024-02-21T09:10:20;12.20;;;4.20;;
77105;SDS011;66057;54.718;18.426;2024-02-21T09:12:46;9.27;;;5.50;;
77105;SDS011;66057;54.718;18.426;2024-02-21T09:17:38;12.75;;;4.28;;
77105;SDS011;66057;54.718;18.426;2024-02-21T09:20:05;9.90;;;4.35;;
77105;SDS011;66057;54.718;18.426;2024-02-21T09:22:31;7.18;;;4.05;;
77105;SDS011;66057;54.718;18.426;2024-02-21T09:25:01;7.07;;;3.38;;
77105;SDS011;66057;54.718;18.426;2024-02-21T09:27:28;7.85;;;3.83;;
77105;SDS011;66057;54.718;18.426;2024-02-21T09:29:54;7.35;;;3.83;;
77105;SDS011;66057;54.718;18.426;2024-02-21T09:32:19;8.38;;;3.80;;
77105;SDS011;66057;54.718;18.426;2024-02-21T09:34:45;10.63;;;5.25;;
77105;SDS011;66057;54.718;18.426;2024-02-21T09:37:10;10.50;;;5.07;;
77105;SDS011;66057;54.718;18.426;2024-02-21T09:39:36;13.07;;;6.15;;
77105;SDS011;66057;54.718;18.426;2024-02-21T09:42:08;8.38;;;3.45;;
77105;SDS011;66057;54.718;18.426;2024-02-21T09:44:37;21.17;;;6.63;;
77105;SDS011;66057;54.718;18.426;2024-02-21T09:47:04;5.95;;;4.72;;
77105;SDS011;66057;54.718;18.426;2024-02-21T09:49:33;8.07;;;4.47;;
77105;SDS011;66057;54.718;18.426;2024-02-21T09:52:02;7.43;;;3.40;;
77105;SDS011;66057;54.718;18.426;2024-02-21T09:54:30;10.52;;;6.13;;
77105;SDS011;66057;54.718;18.426;2024-02-21T09:57:02;10.77;;;4.22;;
77105;SDS011;66057;54.718;18.426;2024-02-21T09:59:30;8.02;;;3.03;;
77105;SDS011;66057;54.718;18.426;2024-02-21T10:01:56;7.28;;;3.85;;
77105;SDS011;66057;54.718;18.426;2024-02-21T10:04:23;4.47;;;2.75;;
77105;SDS011;66057;54.718;18.426;2024-02-21T10:06:48;9.25;;;4.60;;
77105;SDS011;66057;54.718;18.426;2024-02-21T10:09:23;9.05;;;4.15;;
77105;SDS011;66057;54.718;18.426;2024-02-21T10:11:49;11.82;;;4.25;;
77105;SDS011;66057;54.718;18.426;2024-02-21T10:14:18;6.13;;;4.22;;
77105;SDS011;66057;54.718;18.426;2024-02-21T10:16:44;7.47;;;3.60;;
77105;SDS011;66057;54.718;18.426;2024-02-21T10:24:01;5.43;;;3.25;;
77105;SDS011;66057;54.718;18.426;2024-02-21T10:26:27;11.50;;;3.88;;
77105;SDS011;66057;54.718;18.426;2024-02-21T10:28:52;10.73;;;5.60;;
77105;SDS011;66057;54.718;18.426;2024-02-21T10:33:58;9.65;;;5.97;;
77105;SDS011;66057;54.718;18.426;2024-02-21T10:36:23;7.32;;;5.05;;
77105;SDS011;66057;54.718;18.426;2024-02-21T10:41:15;7.50;;;4.03;;
77105;SDS011;66057;54.718;18.426;2024-02-21T10:43:42;8.60;;;3.63;;
77105;SDS011;66057;54.718;18.426;2024-02-21T10:46:11;4.30;;;3.08;;
77105;SDS011;66057;54.718;18.426;2024-02-21T10:48:44;4.60;;;3.03;;
77105;SDS011;66057;54.718;18.426;2024-02-21T10:51:16;9.68;;;5.43;;
77105;SDS011;66057;54.718;18.426;2024-02-21T10:58:47;7.82;;;3.67;;
77105;SDS011;66057;54.718;18.426;2024-02-21T11:01:13;6.63;;;3.35;;
77105;SDS011;66057;54.718;18.426;2024-02-21T11:03:43;7.63;;;4.57;;
77105;SDS011;66057;54.718;18.426;2024-02-21T11:06:10;9.02;;;4.72;;
77105;SDS011;66057;54.718;18.426;2024-02-21T11:08:36;4.28;;;2.95;;
77105;SDS011;66057;54.718;18.426;2024-02-21T11:11:01;2.38;;;2.00;;
77105;SDS011;66057;54.718;18.426;2024-02-21T11:13:45;4.68;;;2.80;;
77105;SDS011;66057;54.718;18.426;2024-02-21T11:16:20;4.75;;;3.30;;
77105;SDS011;66057;54.718;18.426;2024-02-21T11:18:47;5.05;;;2.58;;
77105;SDS011;66057;54.718;18.426;2024-02-21T11:21:12;4.38;;;2.70;;
77105;SDS011;66057;54.718;18.426;2024-02-21T11:23:38;4.03;;;2.65;;
77105;SDS011;66057;54.718;18.426;2024-02-21T11:26:09;4.32;;;2.35;;
77105;SDS011;66057;54.718;18.426;2024-02-21T11:28:36;6.93;;;2.88;;
77105;SDS011;66057;54.718;18.426;2024-02-21T11:31:12;3.25;;;1.70;;
77105;SDS011;66057;54.718;18.426;2024-02-21T11:33:41;3.10;;;2.15;;
77105;SDS011;66057;54.718;18.426;2024-02-21T11:36:10;4.28;;;2.03;;
77105;SDS011;66057;54.718;18.426;2024-02-21T11:38:36;3.67;;;2.78;;
77105;SDS011;66057;54.718;18.426;2024-02-21T11:41:01;2.25;;;1.92;;
77105;SDS011;66057;54.718;18.426;2024-02-21T11:43:27;4.50;;;2.78;;
77105;SDS011;66057;54.718;18.426;2024-02-21T11:46:00;7.13;;;2.40;;
77105;SDS011;66057;54.718;18.426;2024-02-21T11:48:26;3.97;;;2.72;;
77105;SDS011;66057;54.718;18.426;2024-02-21T11:50:55;3.13;;;1.55;;
77105;SDS011;66057;54.718;18.426;2024-02-21T11:53:21;2.92;;;1.83;;
77105;SDS011;66057;54.718;18.426;2024-02-21T11:55:46;4.07;;;1.35;;
77105;SDS011;66057;54.718;18.426;2024-02-21T11:58:12;4.20;;;2.45;;
77105;SDS011;66057;54.718;18.426;2024-02-21T12:00:37;2.85;;;1.90;;
77105;SDS011;66057;54.718;18.426;2024-02-21T12:03:04;4.18;;;2.22;;
77105;SDS011;66057;54.718;18.426;2024-02-21T12:05:29;4.32;;;2.00;;
77105;SDS011;66057;54.718;18.426;2024-02-21T12:07:55;5.57;;;2.03;;
77105;SDS011;66057;54.718;18.426;2024-02-21T12:10:21;5.30;;;2.00;;
77105;SDS011;66057;54.718;18.426;2024-02-21T12:12:47;6.35;;;2.95;;
77105;SDS011;66057;54.718;18.426;2024-02-21T12:15:12;2.53;;;1.48;;
77105;SDS011;66057;54.718;18.426;2024-02-21T12:17:39;4.28;;;2.20;;
77105;SDS011;66057;54.718;18.426;2024-02-21T12:20:05;4.93;;;1.75;;
77105;SDS011;66057;54.718;18.426;2024-02-21T12:22:31;3.35;;;1.38;;
77105;SDS011;66057;54.718;18.426;2024-02-21T12:24:58;6.97;;;2.88;;
77105;SDS011;66057;54.718;18.426;2024-02-21T12:27:23;4.40;;;1.98;;
77105;SDS011;66057;54.718;18.426;2024-02-21T12:29:50;6.25;;;2.30;;
77105;SDS011;66057;54.718;18.426;2024-02-21T12:32:16;7.70;;;3.60;;
77105;SDS011;66057;54.718;18.426;2024-02-21T12:34:41;2.90;;;1.20;;
77105;SDS011;66057;54.718;18.426;2024-02-21T12:37:07;4.28;;;1.95;;
77105;SDS011;66057;54.718;18.426;2024-02-21T12:39:32;5.22;;;2.40;;
77105;SDS011;66057;54.718;18.426;2024-02-21T12:41:58;3.78;;;1.30;;
77105;SDS011;66057;54.718;18.426;2024-02-21T12:44:24;3.25;;;1.48;;
77105;SDS011;66057;54.718;18.426;2024-02-21T12:46:49;3.50;;;1.40;;
77105;SDS011;66057;54.718;18.426;2024-02-21T12:49:19;2.63;;;1.17;;
77105;SDS011;66057;54.718;18.426;2024-02-21T12:51:44;2.90;;;1.35;;
77105;SDS011;66057;54.718;18.426;2024-02-21T12:54:12;4.55;;;1.05;;
77105;SDS011;66057;54.718;18.426;2024-02-21T12:56:38;4.35;;;1.23;;
77105;SDS011;66057;54.718;18.426;2024-02-21T12:59:05;2.33;;;1.38;;
77105;SDS011;66057;54.718;18.426;2024-02-21T13:01:30;2.10;;;1.00;;
77105;SDS011;66057;54.718;18.426;2024-02-21T13:03:56;2.75;;;0.47;;
77105;SDS011;66057;54.718;18.426;2024-02-21T13:06:23;1.00;;;0.50;;
77105;SDS011;66057;54.718;18.426;2024-02-21T13:08:50;0.63;;;0.40;;
77105;SDS011;66057;54.718;18.426;2024-02-21T13:11:16;4.22;;;0.57;;
77105;SDS011;66057;54.718;18.426;2024-02-21T13:13:41;4.40;;;1.50;;
77105;SDS011;66057;54.718;18.426;2024-02-21T13:16:07;6.40;;;1.55;;
77105;SDS011;66057;54.718;18.426;2024-02-21T13:18:34;4.22;;;0.75;;
77105;SDS011;66057;54.718;18.426;2024-02-21T13:21:00;5.18;;;1.30;;
77105;SDS011;66057;54.718;18.426;2024-02-21T13:23:26;5.25;;;1.75;;
77105;SDS011;66057;54.718;18.426;2024-02-21T13:25:51;10.80;;;1.27;;
77105;SDS011;66057;54.718;18.426;2024-02-21T13:28:17;5.40;;;1.45;;
77105;SDS011;66057;54.718;18.426;2024-02-21T13:30:43;3.72;;;1.38;;
77105;SDS011;66057;54.718;18.426;2024-02-21T13:33:08;5.50;;;1.65;;
77105;SDS011;66057;54.718;18.426;2024-02-21T13:35:35;4.03;;;0.70;;
77105;SDS011;66057;54.718;18.426;2024-02-21T13:38:02;5.93;;;0.80;;
77105;SDS011;66057;54.718;18.426;2024-02-21T13:40:28;6.50;;;1.55;;
77105;SDS011;66057;54.718;18.426;2024-02-21T13:42:54;5.88;;;1.58;;
77105;SDS011;66057;54.718;18.426;2024-02-21T13:45:20;2.95;;;1.80;;
77105;SDS011;66057;54.718;18.426;2024-02-21T13:47:45;2.55;;;1.23;;
77105;SDS011;66057;54.718;18.426;2024-02-21T13:50:12;5.28;;;1.17;;
77105;SDS011;66057;54.718;18.426;2024-02-21T13:52:39;9.75;;;2.67;;
77105;SDS011;66057;54.718;18.426;2024-02-21T13:55:05;6.28;;;2.50;;
77105;SDS011;66057;54.718;18.426;2024-02-21T13:57:34;6.78;;;2.15;;
77105;SDS011;66057;54.718;18.426;2024-02-21T14:00:00;14.60;;;2.28;;
77105;SDS011;66057;54.718;18.426;2024-02-21T14:02:25;3.83;;;1.65;;
77105;SDS011;66057;54.718;18.426;2024-02-21T14:04:51;7.20;;;1.23;;
77105;SDS011;66057;54.718;18.426;2024-02-21T14:07:16;5.43;;;1.40;;
77105;SDS011;66057;54.718;18.426;2024-02-21T14:09:42;2.83;;;1.48;;
77105;SDS011;66057;54.718;18.426;2024-02-21T14:12:08;9.77;;;3.30;;
77105;SDS011;66057;54.718;18.426;2024-02-21T14:14:37;4.85;;;1.52;;
77105;SDS011;66057;54.718;18.426;2024-02-21T14:17:03;3.70;;;1.63;;
77105;SDS011;66057;54.718;18.426;2024-02-21T14:19:29;5.63;;;2.00;;
77105;SDS011;66057;54.718;18.426;2024-02-21T14:21:55;3.30;;;1.70;;
77105;SDS011;66057;54.718;18.426;2024-02-21T14:24:20;5.97;;;2.10;;
77105;SDS011;66057;54.718;18.426;2024-02-21T14:26:46;4.03;;;2.00;;
77105;SDS011;66057;54.718;18.426;2024-02-21T14:29:11;4.18;;;1.45;;
77105;SDS011;66057;54.718;18.426;2024-02-21T14:31:38;2.42;;;0.98;;
77105;SDS011;66057;54.718;18.426;2024-02-21T14:34:03;1.88;;;0.98;;
77105;SDS011;66057;54.718;18.426;2024-02-21T14:36:29;3.13;;;1.23;;
77105;SDS011;66057;54.718;18.426;2024-02-21T14:38:56;4.28;;;1.67;;